Adventurer K — V3UR7 — position and weather

sailwx.info

Track history (hours):
 
Tides and Currents Weather Stations Pressure Air Temp Water Temp Dewpoint Dewpoint Depression Visibility Wind Speed Wind Dir Waves Ship Positions

Adventurer K

Last reported at 2018-Mar-03 13:57 UTC. Time now 2018-Jun-25 04:17 UTC.
Position N 31°47' E 031°55'.
Warning: this ship's position is months out of date.

Length 166 m; draft 10 m.

Type: Cargo ship. MMSI: 312742000.

Date/timePositionNaut miles runAvg speedWind from/ knotsBaromVisibWave heightAir tempDewpointWater temp
2018-Mar-03 13:57N 31°47' E 031°55'711.7
2018-Mar-03 13:20N 31°52' E 031°49'411.6
2018-Mar-03 13:00N 31°55' E 031°46'711.9
2018-Mar-03 12:23N 32°00' E 031°40'43011.0
2018-Mar-01 21:19N 37°24' E 025°55'310.6
2018-Mar-01 21:00N 37°27' E 025°54'  
2018-Feb-25 20:32N 46°30' E 030°56'0 9.5
2018-Feb-25 20:29N 46°31' E 030°56'40 8.2
2018-Feb-25 15:33N 46°38' E 031°53'1 8.7
2018-Feb-25 15:30N 46°38' E 031°54'5 8.1
2018-Feb-25 14:54N 46°42' E 031°56'3 7.6
2018-Feb-25 14:30N 46°45' E 031°54'4 8.1
2018-Feb-25 14:00N 46°49' E 031°54'4 8.6
2018-Feb-25 13:30N 46°52' E 031°59'3 6.7
2018-Feb-25 13:00N 46°55' E 032°01'2 3.7
2018-Feb-25 12:28N 46°57' E 032°00'0 0.1
2018-Feb-25 11:58N 46°57' E 031°60'0 0.0
2018-Feb-25 11:28N 46°57' E 031°60'0 0.0
2018-Feb-25 10:58N 46°57' E 031°60'0 0.0
2018-Feb-25 10:28N 46°57' E 031°60'0 0.0
2018-Feb-25 09:58N 46°57' E 031°60'0 0.0
2018-Feb-25 09:28N 46°57' E 031°60'  
2018-Feb-23 02:43N 46°57' E 031°60'0 0.0
2018-Feb-23 02:28N 46°57' E 031°60'0 0.0
2018-Feb-23 01:58N 46°57' E 031°60'0 0.0
2018-Feb-23 01:28N 46°57' E 031°60'0 0.0
2018-Feb-23 00:58N 46°57' E 031°60'0 0.0
2018-Feb-23 00:28N 46°57' E 031°60'0 0.0
2018-Feb-22 23:55N 46°57' E 031°60'0 0.0
2018-Feb-22 23:28N 46°57' E 031°60'0 0.0
2018-Feb-22 22:58N 46°57' E 031°60'0 0.0
2018-Feb-22 22:28N 46°57' E 031°60'0 0.0
2018-Feb-22 21:58N 46°57' E 031°60'0 0.0
2018-Feb-22 21:28N 46°57' E 031°60'0 0.0
2018-Feb-22 20:58N 46°57' E 031°60'0 0.0
2018-Feb-22 20:28N 46°57' E 031°60'0 0.0
2018-Feb-22 19:58N 46°57' E 031°60'0 0.0
2018-Feb-22 19:28N 46°57' E 031°60'0 0.0
2018-Feb-22 18:58N 46°57' E 031°60'0 0.0
2018-Feb-22 18:28N 46°57' E 031°60'0 0.0
2018-Feb-22 17:58N 46°57' E 031°60'0 0.0
2018-Feb-22 17:28N 46°57' E 031°60'0 0.0
2018-Feb-22 16:58N 46°57' E 031°60'0 0.0
2018-Feb-22 16:28N 46°57' E 031°60'0 0.0
2018-Feb-22 15:58N 46°57' E 031°60'0 0.0
2018-Feb-22 15:28N 46°57' E 031°60'0 0.0
2018-Feb-22 14:58N 46°57' E 031°60'0 0.0
2018-Feb-22 14:25N 46°57' E 031°60'0 0.0
2018-Feb-22 13:55N 46°57' E 031°60'0 0.0
2018-Feb-22 13:28N 46°57' E 031°60'0 0.0
2018-Feb-22 12:58N 46°57' E 031°60'0 0.0
2018-Feb-22 11:40N 46°57' E 031°60'0 0.0
2018-Feb-22 11:28N 46°57' E 031°60'0 0.0
2018-Feb-22 10:58N 46°57' E 031°60'0 0.0
2018-Feb-22 10:28N 46°57' E 031°60'0 0.0
2018-Feb-22 09:58N 46°57' E 031°60'0 0.0
2018-Feb-22 09:28N 46°57' E 031°60'0 0.0
2018-Feb-22 08:58N 46°57' E 031°60'0 0.0
2018-Feb-22 08:28N 46°57' E 031°60'0 0.0
2018-Feb-22 07:58N 46°57' E 031°60'0 0.0
2018-Feb-22 07:28N 46°57' E 031°60'0 0.0
2018-Feb-22 06:58N 46°57' E 031°60'0 0.0
2018-Feb-22 06:28N 46°57' E 031°60'0 0.0
2018-Feb-22 05:58N 46°57' E 031°60'0 0.0
2018-Feb-22 05:28N 46°57' E 031°60'0 0.0
2018-Feb-22 04:58N 46°57' E 031°60'0 0.0
2018-Feb-22 04:28N 46°57' E 031°60'0 0.0
2018-Feb-22 03:58N 46°57' E 031°60'0 0.0
2018-Feb-22 03:28N 46°57' E 031°60'0 0.0
2018-Feb-22 02:58N 46°57' E 031°60'0 0.0
2018-Feb-22 02:28N 46°57' E 031°60'0 0.0
2018-Feb-22 01:55N 46°57' E 031°60'0 0.0
2018-Feb-22 01:28N 46°57' E 031°60'0 0.0
2018-Feb-22 00:58N 46°57' E 031°60'0 0.0
2018-Feb-22 00:28N 46°57' E 031°60'0 0.0
2018-Feb-21 23:58N 46°57' E 031°60'0 0.0
2018-Feb-21 23:28N 46°57' E 031°60'0 0.0
2018-Feb-21 22:58N 46°57' E 031°60'0 0.0
2018-Feb-21 22:28N 46°57' E 031°60'0 0.0
2018-Feb-21 21:58N 46°57' E 031°60'0 0.0
2018-Feb-21 21:28N 46°57' E 031°60'0 0.0
2018-Feb-21 20:58N 46°57' E 031°60'0 0.0
2018-Feb-21 20:28N 46°57' E 031°60'0 0.0
2018-Feb-21 19:58N 46°57' E 031°60'0 0.0
2018-Feb-21 19:28N 46°57' E 031°60'0 0.0
2018-Feb-21 18:58N 46°57' E 031°60'0 0.0
2018-Feb-21 18:28N 46°57' E 031°60'0 0.0
2018-Feb-21 17:58N 46°57' E 031°60'0 0.0
2018-Feb-21 17:28N 46°57' E 031°60'0 0.0
2018-Feb-21 16:58N 46°57' E 031°60'0 0.0
2018-Feb-21 16:28N 46°57' E 031°60'0 0.0
2018-Feb-21 15:58N 46°57' E 031°60'0 0.0
2018-Feb-21 15:25N 46°57' E 031°60'0 0.0
2018-Feb-21 14:58N 46°57' E 031°60'0 0.0
2018-Feb-21 14:28N 46°57' E 031°60'0 0.0
2018-Feb-21 13:58N 46°57' E 031°60'  
Track history (hours):
 
Tides and Currents Weather Stations Pressure Air Temp Water Temp Dewpoint Dewpoint Depression Visibility Wind Speed Wind Dir Waves Ship Positions

Adventurer K

Last reported at 2018-Mar-03 13:57 UTC. Time now 2018-Jun-25 04:17 UTC.
Position N 31°47' E 031°55'.
Warning: this ship's position is months out of date.

Length 166 m; draft 10 m.

Type: Cargo ship. MMSI: 312742000.

Date/timePositionNaut miles runAvg speedWind from/ knotsBaromVisibWave heightAir tempDewpointWater temp
2018-Mar-03 13:57N 31°47' E 031°55'711.7
2018-Mar-03 13:20N 31°52' E 031°49'411.6
2018-Mar-03 13:00N 31°55' E 031°46'711.9
2018-Mar-03 12:23N 32°00' E 031°40'43011.0
2018-Mar-01 21:19N 37°24' E 025°55'310.6
2018-Mar-01 21:00N 37°27' E 025°54'  
2018-Feb-25 20:32N 46°30' E 030°56'0 9.5
2018-Feb-25 20:29N 46°31' E 030°56'40 8.2
2018-Feb-25 15:33N 46°38' E 031°53'1 8.7
2018-Feb-25 15:30N 46°38' E 031°54'5 8.1
2018-Feb-25 14:54N 46°42' E 031°56'3 7.6
2018-Feb-25 14:30N 46°45' E 031°54'4 8.1
2018-Feb-25 14:00N 46°49' E 031°54'4 8.6
2018-Feb-25 13:30N 46°52' E 031°59'3 6.7
2018-Feb-25 13:00N 46°55' E 032°01'2 3.7
2018-Feb-25 12:28N 46°57' E 032°00'0 0.1
2018-Feb-25 11:58N 46°57' E 031°60'0 0.0
2018-Feb-25 11:28N 46°57' E 031°60'0 0.0
2018-Feb-25 10:58N 46°57' E 031°60'0 0.0
2018-Feb-25 10:28N 46°57' E 031°60'0 0.0
2018-Feb-25 09:58N 46°57' E 031°60'0 0.0
2018-Feb-25 09:28N 46°57' E 031°60'  
2018-Feb-23 02:43N 46°57' E 031°60'0 0.0
2018-Feb-23 02:28N 46°57' E 031°60'0 0.0
2018-Feb-23 01:58N 46°57' E 031°60'0 0.0
2018-Feb-23 01:28N 46°57' E 031°60'0 0.0
2018-Feb-23 00:58N 46°57' E 031°60'0 0.0
2018-Feb-23 00:28N 46°57' E 031°60'0 0.0
2018-Feb-22 23:55N 46°57' E 031°60'0 0.0
2018-Feb-22 23:28N 46°57' E 031°60'0 0.0
2018-Feb-22 22:58N 46°57' E 031°60'0 0.0
2018-Feb-22 22:28N 46°57' E 031°60'0 0.0
2018-Feb-22 21:58N 46°57' E 031°60'0 0.0
2018-Feb-22 21:28N 46°57' E 031°60'0 0.0
2018-Feb-22 20:58N 46°57' E 031°60'0 0.0
2018-Feb-22 20:28N 46°57' E 031°60'0 0.0
2018-Feb-22 19:58N 46°57' E 031°60'0 0.0
2018-Feb-22 19:28N 46°57' E 031°60'0 0.0
2018-Feb-22 18:58N 46°57' E 031°60'0 0.0
2018-Feb-22 18:28N 46°57' E 031°60'0 0.0
2018-Feb-22 17:58N 46°57' E 031°60'0 0.0
2018-Feb-22 17:28N 46°57' E 031°60'0 0.0
2018-Feb-22 16:58N 46°57' E 031°60'0 0.0
2018-Feb-22 16:28N 46°57' E 031°60'0 0.0
2018-Feb-22 15:58N 46°57' E 031°60'0 0.0
2018-Feb-22 15:28N 46°57' E 031°60'0 0.0
2018-Feb-22 14:58N 46°57' E 031°60'0 0.0
2018-Feb-22 14:25N 46°57' E 031°60'0 0.0
2018-Feb-22 13:55N 46°57' E 031°60'0 0.0
2018-Feb-22 13:28N 46°57' E 031°60'0 0.0
2018-Feb-22 12:58N 46°57' E 031°60'0 0.0
2018-Feb-22 11:40N 46°57' E 031°60'0 0.0
2018-Feb-22 11:28N 46°57' E 031°60'0 0.0
2018-Feb-22 10:58N 46°57' E 031°60'0 0.0
2018-Feb-22 10:28N 46°57' E 031°60'0 0.0
2018-Feb-22 09:58N 46°57' E 031°60'0 0.0
2018-Feb-22 09:28N 46°57' E 031°60'0 0.0
2018-Feb-22 08:58N 46°57' E 031°60'0 0.0
2018-Feb-22 08:28N 46°57' E 031°60'0 0.0
2018-Feb-22 07:58N 46°57' E 031°60'0 0.0
2018-Feb-22 07:28N 46°57' E 031°60'0 0.0
2018-Feb-22 06:58N 46°57' E 031°60'0 0.0
2018-Feb-22 06:28N 46°57' E 031°60'0 0.0
2018-Feb-22 05:58N 46°57' E 031°60'0 0.0
2018-Feb-22 05:28N 46°57' E 031°60'0 0.0
2018-Feb-22 04:58N 46°57' E 031°60'0 0.0
2018-Feb-22 04:28N 46°57' E 031°60'0 0.0
2018-Feb-22 03:58N 46°57' E 031°60'0 0.0
2018-Feb-22 03:28N 46°57' E 031°60'0 0.0
2018-Feb-22 02:58N 46°57' E 031°60'0 0.0
2018-Feb-22 02:28N 46°57' E 031°60'0 0.0
2018-Feb-22 01:55N 46°57' E 031°60'0 0.0
2018-Feb-22 01:28N 46°57' E 031°60'0 0.0
2018-Feb-22 00:58N 46°57' E 031°60'0 0.0
2018-Feb-22 00:28N 46°57' E 031°60'0 0.0
2018-Feb-21 23:58N 46°57' E 031°60'0 0.0
2018-Feb-21 23:28N 46°57' E 031°60'0 0.0
2018-Feb-21 22:58N 46°57' E 031°60'0 0.0
2018-Feb-21 22:28N 46°57' E 031°60'0 0.0
2018-Feb-21 21:58N 46°57' E 031°60'0 0.0
2018-Feb-21 21:28N 46°57' E 031°60'0 0.0
2018-Feb-21 20:58N 46°57' E 031°60'0 0.0
2018-Feb-21 20:28N 46°57' E 031°60'0 0.0
2018-Feb-21 19:58N 46°57' E 031°60'0 0.0
2018-Feb-21 19:28N 46°57' E 031°60'0 0.0
2018-Feb-21 18:58N 46°57' E 031°60'0 0.0
2018-Feb-21 18:28N 46°57' E 031°60'0 0.0
2018-Feb-21 17:58N 46°57' E 031°60'0 0.0
2018-Feb-21 17:28N 46°57' E 031°60'0 0.0
2018-Feb-21 16:58N 46°57' E 031°60'0 0.0
2018-Feb-21 16:28N 46°57' E 031°60'0 0.0
2018-Feb-21 15:58N 46°57' E 031°60'0 0.0
2018-Feb-21 15:25N 46°57' E 031°60'0 0.0
2018-Feb-21 14:58N 46°57' E 031°60'0 0.0
2018-Feb-21 14:28N 46°57' E 031°60'0 0.0
2018-Feb-21 13:58N 46°57' E 031°60'  

Dump ship's entire track history